createdAt,value
2022-12-01T00:01:02.914Z,97.82
2022-12-01T00:03:31.734Z,97.63
2022-12-01T00:06:01.388Z,97.61
2022-12-01T00:08:31.349Z,97.85
2022-12-01T00:11:10.346Z,97.97
2022-12-01T00:13:38.634Z,98.08
2022-12-01T00:16:15.796Z,98.05
2022-12-01T00:18:44.604Z,97.95
2022-12-01T00:21:16.596Z,98.02
2022-12-01T00:23:48.813Z,98.13
2022-12-01T00:26:18.489Z,98.24
2022-12-01T00:28:49.923Z,98.31
2022-12-01T00:31:17.973Z,98.22
2022-12-01T00:33:45.965Z,98.41
2022-12-01T00:36:14.165Z,98.27
2022-12-01T00:38:42.090Z,98.46
2022-12-01T00:41:10.077Z,98.44
2022-12-01T00:43:38.156Z,98.40
2022-12-01T00:46:06.173Z,98.30
2022-12-01T00:48:34.071Z,98.52
2022-12-01T00:51:03.202Z,98.48
2022-12-01T00:53:31.404Z,98.25
2022-12-01T00:55:59.473Z,98.38
2022-12-01T00:58:27.350Z,98.43
2022-12-01T01:01:01.238Z,98.46
2022-12-01T01:03:32.571Z,98.67
2022-12-01T01:06:08.827Z,98.56
2022-12-01T01:08:36.970Z,98.74
2022-12-01T01:11:06.478Z,98.67
2022-12-01T01:13:35.711Z,98.71
2022-12-01T01:16:07.085Z,98.62
2022-12-01T01:18:35.276Z,98.61
2022-12-01T01:21:07.202Z,98.71
2022-12-01T01:23:35.527Z,98.73
2022-12-01T01:26:06.079Z,98.74
2022-12-01T01:28:35.320Z,98.72
2022-12-01T01:31:12.169Z,98.74
2022-12-01T01:33:40.224Z,98.51
2022-12-01T01:36:08.300Z,98.76
2022-12-01T01:38:37.752Z,98.80
2022-12-01T01:41:06.662Z,98.61
2022-12-01T01:43:53.479Z,98.83
2022-12-01T01:46:24.308Z,98.80
2022-12-01T01:49:01.653Z,98.92
2022-12-01T01:51:45.998Z,98.93
2022-12-01T01:54:21.508Z,99.04
2022-12-01T01:56:50.825Z,98.95
2022-12-01T01:59:23.195Z,99.15
2022-12-01T02:02:00.170Z,99.19
2022-12-01T02:04:32.505Z,99.10
2022-12-01T02:07:00.797Z,99.21
2022-12-01T02:09:30.205Z,99.20
2022-12-01T02:12:30.156Z,98.99
2022-12-01T02:15:27.420Z,99.19
2022-12-01T02:18:10.744Z,99.14
2022-12-01T02:21:10.541Z,99.16
2022-12-01T02:24:15.128Z,98.97
2022-12-01T02:26:56.698Z,98.93
2022-12-01T02:29:49.405Z,99.00
2022-12-01T02:32:45.122Z,98.74
2022-12-01T02:35:34.181Z,98.94
2022-12-01T02:38:07.664Z,99.05
2022-12-01T02:40:52.304Z,98.94
2022-12-01T02:43:54.055Z,98.93
2022-12-01T02:46:44.276Z,98.91
2022-12-01T02:49:20.641Z,98.82
2022-12-01T02:51:50.893Z,98.77
2022-12-01T02:54:19.701Z,98.85
2022-12-01T02:56:51.471Z,98.69
2022-12-01T02:59:19.370Z,98.90
2022-12-01T03:01:59.332Z,98.68
2022-12-01T03:04:56.275Z,98.51
2022-12-01T03:08:21.352Z,98.61
2022-12-01T03:10:57.743Z,98.43
2022-12-01T03:13:40.783Z,98.52
2022-12-01T03:16:13.845Z,98.42
2022-12-01T03:18:55.017Z,98.30
2022-12-01T03:21:31.972Z,98.61
2022-12-01T03:24:08.920Z,98.71
2022-12-01T03:26:40.243Z,98.72
2022-12-01T03:29:15.043Z,98.65
2022-12-01T03:31:49.076Z,98.60
2022-12-01T03:34:27.060Z,98.66
2022-12-01T03:37:03.086Z,98.85
2022-12-01T03:39:34.743Z,98.68
2022-12-01T03:42:23.659Z,98.80
2022-12-01T03:44:55.471Z,98.73
2022-12-01T03:47:32.097Z,98.85
2022-12-01T03:50:00.743Z,98.90
2022-12-01T03:53:08.677Z,98.90
2022-12-01T03:55:46.505Z,98.88
2022-12-01T03:58:29.773Z,98.88
2022-12-01T04:00:59.153Z,98.95
2022-12-01T04:03:27.181Z,98.87
2022-12-01T04:05:55.505Z,98.81
2022-12-01T04:08:23.470Z,98.82
2022-12-01T04:10:51.486Z,98.87
2022-12-01T04:13:25.731Z,98.81
2022-12-01T04:15:54.812Z,98.95
2022-12-01T04:18:22.774Z,98.93
2022-12-01T04:20:50.918Z,98.99
2022-12-01T04:23:37.565Z,98.97
2022-12-01T04:26:06.701Z,98.73
2022-12-01T04:28:36.801Z,98.69
2022-12-01T04:31:05.060Z,98.70
2022-12-01T04:33:32.853Z,98.74
2022-12-01T04:36:01.286Z,98.74
2022-12-01T04:38:31.049Z,98.66
2022-12-01T04:40:59.170Z,98.72
2022-12-01T04:43:27.337Z,98.94
2022-12-01T04:45:55.117Z,99.06
2022-12-01T04:48:22.878Z,98.96
2022-12-01T04:50:50.704Z,98.96
2022-12-01T04:53:18.500Z,99.09
2022-12-01T04:55:46.467Z,99.23
2022-12-01T04:58:14.407Z,99.13
2022-12-01T05:00:42.266Z,99.09
2022-12-01T05:03:14.831Z,99.07
2022-12-01T05:05:43.105Z,99.11
2022-12-01T05:08:11.727Z,99.18
2022-12-01T05:10:39.886Z,99.28
2022-12-01T05:13:07.629Z,99.27
2022-12-01T05:15:35.470Z,99.32
2022-12-01T05:18:03.312Z,99.39
2022-12-01T05:20:50.076Z,99.58
2022-12-01T05:23:17.881Z,99.66
2022-12-01T05:25:45.733Z,99.70
2022-12-01T05:28:13.641Z,99.76
2022-12-01T05:30:41.482Z,99.64
2022-12-01T05:33:09.487Z,99.73
2022-12-01T05:35:37.433Z,99.57
2022-12-01T05:38:07.965Z,99.59
2022-12-01T05:40:37.241Z,99.56
2022-12-01T05:43:13.958Z,99.46
2022-12-01T05:45:41.960Z,99.55
2022-12-01T05:48:09.984Z,99.61
2022-12-01T05:50:39.523Z,99.58
2022-12-01T05:53:08.406Z,99.46
2022-12-01T05:55:42.901Z,99.52
2022-12-01T05:58:14.060Z,99.52
2022-12-01T06:00:45.980Z,99.36
2022-12-01T06:03:14.467Z,99.52
2022-12-01T06:05:42.278Z,99.40
2022-12-01T06:08:12.478Z,99.42
2022-12-01T06:10:40.216Z,99.38
2022-12-01T06:13:08.495Z,99.46
2022-12-01T06:15:36.239Z,99.27
2022-12-01T06:18:04.145Z,99.18
2022-12-01T06:20:31.905Z,99.11
2022-12-01T06:22:59.758Z,98.86
2022-12-01T06:25:27.606Z,98.77
2022-12-01T06:27:58.738Z,98.87
2022-12-01T06:30:27.174Z,98.78
2022-12-01T06:32:55.387Z,98.87
2022-12-01T06:35:23.349Z,98.80
2022-12-01T06:37:54.573Z,98.88
2022-12-01T06:40:22.966Z,98.84
2022-12-01T06:42:50.860Z,98.94
2022-12-01T06:45:18.925Z,99.04
2022-12-01T06:47:48.414Z,98.98
2022-12-01T06:50:16.221Z,98.96
2022-12-01T06:52:43.962Z,99.05
2022-12-01T06:55:11.767Z,99.03
2022-12-01T06:57:39.980Z,98.95
2022-12-01T07:00:08.853Z,98.80
2022-12-01T07:02:37.014Z,98.81
2022-12-01T07:05:05.242Z,98.89
2022-12-01T07:07:35.320Z,98.88
2022-12-01T07:10:03.425Z,98.94
2022-12-01T07:12:31.909Z,98.94
2022-12-01T07:15:02.040Z,98.84
2022-12-01T07:17:30.029Z,98.79
2022-12-01T07:19:58.179Z,98.89
2022-12-01T07:22:32.248Z,98.75
2022-12-01T07:25:00.656Z,98.60
2022-12-01T07:27:32.363Z,98.64
2022-12-01T07:30:00.534Z,98.52
2022-12-01T07:32:28.456Z,98.54
2022-12-01T07:34:56.356Z,98.59
2022-12-01T07:37:24.238Z,98.57
2022-12-01T07:39:52.224Z,98.41
2022-12-01T07:42:20.230Z,98.47
2022-12-01T07:44:48.198Z,98.45
2022-12-01T07:47:16.167Z,98.30
2022-12-01T07:49:44.247Z,98.13
2022-12-01T07:52:12.104Z,98.09
2022-12-01T07:54:39.971Z,98.13
2022-12-01T07:57:08.191Z,98.03
2022-12-01T07:59:36.083Z,97.96
2022-12-01T08:02:04.101Z,97.98
2022-12-01T08:04:32.032Z,97.95
2022-12-01T08:06:59.962Z,97.95
2022-12-01T08:09:28.097Z,97.70
2022-12-01T08:11:55.914Z,97.73
2022-12-01T08:14:23.844Z,97.72
2022-12-01T08:16:51.761Z,97.76
2022-12-01T08:19:19.840Z,97.61
2022-12-01T08:21:47.628Z,97.69
2022-12-01T08:24:15.515Z,97.76
2022-12-01T08:26:43.343Z,97.65
2022-12-01T08:29:14.604Z,97.64
2022-12-01T08:31:45.042Z,97.79
2022-12-01T08:34:12.922Z,97.63
2022-12-01T08:36:40.767Z,97.55
2022-12-01T08:39:09.267Z,97.47
2022-12-01T08:41:37.183Z,97.35
2022-12-01T08:44:05.059Z,97.05
2022-12-01T08:46:34.725Z,96.96
2022-12-01T08:49:04.516Z,96.89
2022-12-01T08:51:32.948Z,96.83
2022-12-01T08:54:01.395Z,96.69
2022-12-01T08:56:36.098Z,96.84
2022-12-01T08:59:04.197Z,96.59
2022-12-01T09:01:33.194Z,96.48
2022-12-01T09:04:06.339Z,96.51
2022-12-01T09:06:40.531Z,96.31
2022-12-01T09:09:10.403Z,96.26
2022-12-01T09:11:38.700Z,96.34
2022-12-01T09:14:06.756Z,96.22
2022-12-01T09:16:34.622Z,96.36
2022-12-01T09:19:03.309Z,96.27
2022-12-01T09:21:34.257Z,96.22
2022-12-01T09:24:04.770Z,96.44
2022-12-01T09:26:33.434Z,96.45
2022-12-01T09:29:04.908Z,96.32
2022-12-01T09:31:33.153Z,96.30
2022-12-01T09:34:08.194Z,96.14
2022-12-01T09:36:37.550Z,96.31
2022-12-01T09:39:07.525Z,96.36
2022-12-01T09:41:45.314Z,96.35
2022-12-01T09:44:35.863Z,96.50
2022-12-01T09:47:18.958Z,96.38
2022-12-01T09:50:25.899Z,96.17
2022-12-01T09:53:04.515Z,96.43
2022-12-01T09:55:33.717Z,96.46
2022-12-01T09:58:04.458Z,96.55
2022-12-01T10:00:35.661Z,96.55
2022-12-01T10:03:35.442Z,96.62
2022-12-01T10:06:32.091Z,96.56
2022-12-01T10:09:35.461Z,96.58
2022-12-01T10:12:15.443Z,96.55
2022-12-01T10:14:46.332Z,96.65
2022-12-01T10:17:23.036Z,96.83
2022-12-01T10:19:58.919Z,96.60
2022-12-01T10:22:52.391Z,96.74
2022-12-01T10:25:29.862Z,96.74
2022-12-01T10:28:06.635Z,96.50
2022-12-01T10:30:42.282Z,96.46
2022-12-01T10:33:33.485Z,96.34
2022-12-01T10:36:01.534Z,96.15
2022-12-01T10:38:32.771Z,95.93
2022-12-01T10:41:02.308Z,95.65
2022-12-01T10:43:47.257Z,95.67
2022-12-01T10:46:51.612Z,96.02
2022-12-01T10:49:20.529Z,95.64
2022-12-01T10:51:54.497Z,95.95
2022-12-01T10:54:31.366Z,95.92
2022-12-01T10:56:59.625Z,95.75
2022-12-01T10:59:37.783Z,95.42
2022-12-01T11:02:15.999Z,95.33
2022-12-01T11:04:57.597Z,95.18
2022-12-01T11:07:29.705Z,95.26
2022-12-01T11:10:12.425Z,95.68
2022-12-01T11:12:41.206Z,95.77
2022-12-01T11:15:18.654Z,95.25
2022-12-01T11:17:46.744Z,95.24
2022-12-01T11:20:32.850Z,95.64
2022-12-01T11:23:20.865Z,94.88
2022-12-01T11:26:13.772Z,94.34
2022-12-01T11:28:54.406Z,94.10
2022-12-01T11:31:35.617Z,94.49
2022-12-01T11:34:03.769Z,94.90
2022-12-01T11:36:42.454Z,94.54
2022-12-01T11:39:32.444Z,93.76
2022-12-01T11:42:03.217Z,93.85
2022-12-01T11:47:24.808Z,94.07
2022-12-01T11:50:01.765Z,94.25
2022-12-01T11:52:31.190Z,93.46
2022-12-01T11:55:06.938Z,93.46
2022-12-01T11:57:42.733Z,93.61
2022-12-01T12:00:17.867Z,93.58
2022-12-01T12:03:01.293Z,93.69
2022-12-01T12:09:11.390Z,94.15
2022-12-01T12:12:10.869Z,93.92
2022-12-01T12:14:54.049Z,94.13
2022-12-01T12:17:50.145Z,93.81
2022-12-01T12:20:18.473Z,93.69
2022-12-01T12:23:09.162Z,93.65
2022-12-01T12:25:58.347Z,93.94
2022-12-01T12:28:37.861Z,93.74
2022-12-01T12:31:26.125Z,93.60
2022-12-01T12:34:12.878Z,93.69
2022-12-01T12:37:09.863Z,93.02
2022-12-01T12:40:04.919Z,93.11
2022-12-01T12:42:42.742Z,93.42
2022-12-01T12:45:40.445Z,93.65
2022-12-01T12:48:11.383Z,93.28
2022-12-01T12:50:58.712Z,93.16
2022-12-01T12:53:38.501Z,92.94
2022-12-01T12:56:10.721Z,92.84
2022-12-01T12:59:12.696Z,92.84
2022-12-01T13:02:11.854Z,92.38
2022-12-01T13:04:54.929Z,92.63
2022-12-01T13:07:22.725Z,92.54
2022-12-01T13:10:01.002Z,91.57
2022-12-01T13:12:38.819Z,91.60
2022-12-01T13:15:20.586Z,91.32
2022-12-01T13:17:58.430Z,91.29
2022-12-01T13:20:29.176Z,90.96
2022-12-01T13:23:00.891Z,91.16
2022-12-01T13:25:35.728Z,91.51
2022-12-01T13:28:05.576Z,91.78
2022-12-01T13:30:33.560Z,92.25
2022-12-01T13:33:06.856Z,91.67
2022-12-01T13:35:40.295Z,91.75
2022-12-01T13:38:36.791Z,91.92
2022-12-01T13:41:19.984Z,91.72
2022-12-01T13:44:03.360Z,92.32
2022-12-01T13:46:51.332Z,92.51
2022-12-01T13:49:51.279Z,92.67
2022-12-01T13:52:22.200Z,92.52
2022-12-01T13:55:08.474Z,93.03
2022-12-01T13:57:45.208Z,93.13
2022-12-01T14:00:27.016Z,92.99
2022-12-01T14:03:16.300Z,92.72
2022-12-01T14:05:54.999Z,93.03
2022-12-01T14:08:32.786Z,93.02
2022-12-01T14:11:03.143Z,93.08
2022-12-01T14:13:35.701Z,92.98
2022-12-01T14:16:04.892Z,92.93
2022-12-01T14:18:42.973Z,93.26
2022-12-01T14:21:12.618Z,93.44
2022-12-01T14:24:00.578Z,93.40
2022-12-01T14:26:31.664Z,93.62
2022-12-01T14:29:02.661Z,93.38
2022-12-01T14:31:37.008Z,93.38
2022-12-01T14:34:27.203Z,93.45
2022-12-01T14:37:03.547Z,93.50
2022-12-01T14:39:59.155Z,93.40
2022-12-01T14:42:58.183Z,93.40
2022-12-01T14:45:48.987Z,93.46
2022-12-01T14:48:22.866Z,93.28
2022-12-01T14:51:19.529Z,93.34
2022-12-01T14:53:48.668Z,93.59
2022-12-01T14:56:20.231Z,93.74
2022-12-01T14:58:55.040Z,93.57
2022-12-01T15:01:23.976Z,93.56
2022-12-01T15:03:57.466Z,93.36
2022-12-01T15:06:27.244Z,93.29
2022-12-01T15:09:32.264Z,93.17
2022-12-01T15:11:58.905Z,93.25
2022-12-01T15:14:35.664Z,93.22
2022-12-01T15:17:05.620Z,93.50
2022-12-01T15:19:37.820Z,93.56
2022-12-01T15:22:13.404Z,93.62
2022-12-01T15:24:42.255Z,93.52
2022-12-01T15:27:29.238Z,93.56
2022-12-01T15:30:03.231Z,93.84
2022-12-01T15:32:33.912Z,93.80
2022-12-01T15:35:04.593Z,94.02
2022-12-01T15:37:43.935Z,94.25
2022-12-01T15:43:25.130Z,94.54
2022-12-01T15:46:00.635Z,94.81
2022-12-01T15:48:34.178Z,94.92
2022-12-01T15:51:04.621Z,95.18
2022-12-01T15:53:35.459Z,95.29
2022-12-01T15:56:07.356Z,95.33
2022-12-01T15:58:42.512Z,95.30
2022-12-01T16:01:20.902Z,95.56
2022-12-01T16:03:53.890Z,95.55
2022-12-01T16:06:26.385Z,95.65
2022-12-01T16:09:03.990Z,95.73
2022-12-01T16:11:32.707Z,95.95
2022-12-01T16:14:02.201Z,95.94
2022-12-01T16:16:41.780Z,96.04
2022-12-01T16:19:09.704Z,96.09
2022-12-01T16:21:52.608Z,96.25
2022-12-01T16:24:28.473Z,96.15
2022-12-01T16:26:56.377Z,96.12
2022-12-01T16:29:26.387Z,96.31
2022-12-01T16:32:19.284Z,96.44
2022-12-01T16:34:46.628Z,96.43
2022-12-01T16:37:15.618Z,96.31
2022-12-01T16:39:43.370Z,96.32
2022-12-01T16:42:17.260Z,96.27
2022-12-01T16:44:46.590Z,96.32
2022-12-01T16:47:20.279Z,96.30
2022-12-01T16:49:48.733Z,96.17
2022-12-01T16:52:43.269Z,96.18
2022-12-01T16:55:05.188Z,96.08
2022-12-01T16:57:33.214Z,96.17
2022-12-01T17:00:01.227Z,96.30
2022-12-01T17:02:29.086Z,96.42
2022-12-01T17:04:56.974Z,96.26
2022-12-01T17:07:25.227Z,96.33
2022-12-01T17:09:53.086Z,96.38
2022-12-01T17:12:25.269Z,96.35
2022-12-01T17:14:53.136Z,96.54
2022-12-01T17:17:21.003Z,96.51
2022-12-01T17:19:51.364Z,96.47
2022-12-01T17:22:19.272Z,96.57
2022-12-01T17:24:47.624Z,96.65
2022-12-01T17:27:15.718Z,96.56
2022-12-01T17:29:46.247Z,96.49
2022-12-01T17:32:15.058Z,96.42
2022-12-01T17:34:42.986Z,96.43
2022-12-01T17:37:12.864Z,96.39
2022-12-01T17:39:44.187Z,96.14
2022-12-01T17:42:12.228Z,96.22
2022-12-01T17:44:40.104Z,96.39
2022-12-01T17:47:07.976Z,96.12
2022-12-01T17:49:36.711Z,96.04
2022-12-01T17:52:05.993Z,96.15
2022-12-01T17:54:34.129Z,96.33
2022-12-01T17:57:02.222Z,96.32
2022-12-01T17:59:30.138Z,96.21
2022-12-01T18:01:58.257Z,96.21
2022-12-01T18:04:26.269Z,96.10
2022-12-01T18:06:54.763Z,96.22
2022-12-01T18:09:23.250Z,96.26
2022-12-01T18:11:51.169Z,96.42
2022-12-01T18:14:19.109Z,96.48
2022-12-01T18:16:47.203Z,96.44
2022-12-01T18:19:15.732Z,96.34
2022-12-01T18:21:44.044Z,96.43
2022-12-01T18:24:12.187Z,96.48
2022-12-01T18:26:41.082Z,96.29
2022-12-01T18:29:16.357Z,95.91
2022-12-01T18:31:44.398Z,95.81
2022-12-01T18:34:12.865Z,95.80
2022-12-01T18:36:41.552Z,95.92
2022-12-01T18:39:11.018Z,95.82
2022-12-01T18:41:39.645Z,95.86
2022-12-01T18:44:07.696Z,95.78
2022-12-01T18:46:35.956Z,95.90
2022-12-01T18:49:05.114Z,95.65
2022-12-01T18:51:35.409Z,95.62
2022-12-01T18:54:05.348Z,95.57
2022-12-01T18:56:34.002Z,95.44
2022-12-01T18:59:04.971Z,95.27
2022-12-01T19:01:41.217Z,95.44
2022-12-01T19:04:10.318Z,95.41
2022-12-01T19:06:40.160Z,95.46
2022-12-01T19:09:10.599Z,95.33
2022-12-01T19:11:40.619Z,95.51
2022-12-01T19:14:17.354Z,95.49
2022-12-01T19:16:46.741Z,95.41
2022-12-01T19:19:14.713Z,95.58
2022-12-01T19:21:45.074Z,95.50
2022-12-01T19:24:13.753Z,95.43
2022-12-01T19:26:41.706Z,95.21
2022-12-01T19:29:09.695Z,95.19
2022-12-01T19:31:37.871Z,95.05
2022-12-01T19:34:06.335Z,95.41
2022-12-01T19:36:34.317Z,95.29
2022-12-01T19:39:04.446Z,95.46
2022-12-01T19:41:38.677Z,95.20
2022-12-01T19:44:06.858Z,95.32
2022-12-01T19:46:36.016Z,95.47
2022-12-01T19:49:06.761Z,95.46
2022-12-01T19:51:38.321Z,95.48
2022-12-01T19:54:10.511Z,95.56
2022-12-01T19:56:38.815Z,95.72
2022-12-01T19:59:08.037Z,95.71
2022-12-01T20:01:36.122Z,95.74
2022-12-01T20:04:05.218Z,95.71
2022-12-01T20:06:35.610Z,95.62
2022-12-01T20:09:06.718Z,95.79
2022-12-01T20:11:35.416Z,95.89
2022-12-01T20:14:07.441Z,95.98
2022-12-01T20:16:35.926Z,95.69
2022-12-01T20:19:05.360Z,95.77
2022-12-01T20:21:36.548Z,95.65
2022-12-01T20:24:06.967Z,95.77
2022-12-01T20:26:38.439Z,95.92
2022-12-01T20:29:14.692Z,95.80
2022-12-01T20:31:43.111Z,95.76
2022-12-01T20:34:15.529Z,95.80
2022-12-01T20:36:43.802Z,95.91
2022-12-01T20:39:13.153Z,95.50
2022-12-01T20:41:42.115Z,95.23
2022-12-01T20:44:12.729Z,95.18
2022-12-01T20:46:45.267Z,94.94
2022-12-01T20:49:13.861Z,94.65
2022-12-01T20:51:42.272Z,94.74
2022-12-01T20:54:29.700Z,94.67
2022-12-01T20:56:59.033Z,94.90
2022-12-01T20:59:28.477Z,94.64
2022-12-01T21:01:57.427Z,94.61
2022-12-01T21:04:26.197Z,94.43
2022-12-01T21:07:00.463Z,94.49
2022-12-01T21:09:28.439Z,94.43
2022-12-01T21:12:17.214Z,94.41
2022-12-01T21:15:05.874Z,94.48
2022-12-01T21:17:43.823Z,94.54
2022-12-01T21:20:28.679Z,94.77
2022-12-01T21:23:10.844Z,94.75
2022-12-01T21:25:40.072Z,94.61
2022-12-01T21:28:20.405Z,94.77
2022-12-01T21:30:49.270Z,94.69
2022-12-01T21:33:34.767Z,94.72
2022-12-01T21:36:06.793Z,94.47
2022-12-01T21:38:34.744Z,94.61
2022-12-01T21:41:09.290Z,94.72
2022-12-01T21:43:38.600Z,94.99
2022-12-01T21:46:14.256Z,95.17
2022-12-01T21:48:43.261Z,95.42
2022-12-01T21:51:24.773Z,95.07
2022-12-01T21:53:55.624Z,94.88
2022-12-01T21:56:26.806Z,95.14
2022-12-01T21:59:02.341Z,95.47
2022-12-01T22:01:35.293Z,95.43
2022-12-01T22:04:12.460Z,95.63
2022-12-01T22:06:43.612Z,95.43
2022-12-01T22:09:22.308Z,95.62
2022-12-01T22:11:54.313Z,95.64
2022-12-01T22:14:29.702Z,95.74
2022-12-01T22:17:11.453Z,95.57
2022-12-01T22:19:44.619Z,95.62
2022-12-01T22:22:12.519Z,95.80
2022-12-01T22:24:48.509Z,95.64
2022-12-01T22:27:31.549Z,95.72
2022-12-01T22:30:07.511Z,95.78
2022-12-01T22:32:40.520Z,95.68
2022-12-01T22:35:34.195Z,95.66
2022-12-01T22:38:17.225Z,95.75
2022-12-01T22:41:02.547Z,95.96
2022-12-01T22:43:41.688Z,95.94
2022-12-01T22:46:23.721Z,96.03
2022-12-01T22:49:00.200Z,96.18
2022-12-01T22:51:40.624Z,96.02
2022-12-01T22:54:11.184Z,96.00
2022-12-01T22:56:45.371Z,95.79
2022-12-01T22:59:18.681Z,96.01
2022-12-01T23:01:54.980Z,96.08
2022-12-01T23:04:27.723Z,96.26
2022-12-01T23:07:15.685Z,95.98
2022-12-01T23:09:44.978Z,95.90
2022-12-01T23:12:12.892Z,96.18
2022-12-01T23:14:47.541Z,96.19
2022-12-01T23:17:21.734Z,95.90
2022-12-01T23:19:51.733Z,95.96
2022-12-01T23:22:20.075Z,96.01
2022-12-01T23:24:48.087Z,96.11
2022-12-01T23:27:17.497Z,95.97
2022-12-01T23:29:45.382Z,95.83
2022-12-01T23:32:13.329Z,95.58
2022-12-01T23:34:41.219Z,95.57
2022-12-01T23:37:27.539Z,95.35
2022-12-01T23:39:56.225Z,95.39
2022-12-01T23:42:23.989Z,95.10
2022-12-01T23:44:52.340Z,95.21
2022-12-01T23:47:25.165Z,95.24
2022-12-01T23:50:03.710Z,95.42
2022-12-01T23:52:35.757Z,95.04
2022-12-01T23:55:14.435Z,95.22
2022-12-01T23:57:42.828Z,94.99
